sensor_id;sensor_type;location;lat;lon;timestamp;P1;durP1;ratioP1;P2;durP2;ratioP2
21162;SDS011;10739;52.198;20.908;2023-03-22T00:01:10;67.75;;;39.00;;
21162;SDS011;10739;52.198;20.908;2023-03-22T00:03:40;63.60;;;38.53;;
21162;SDS011;10739;52.198;20.908;2023-03-22T00:06:07;62.15;;;37.42;;
21162;SDS011;10739;52.198;20.908;2023-03-22T00:08:33;64.45;;;37.35;;
21162;SDS011;10739;52.198;20.908;2023-03-22T00:11:00;62.83;;;37.75;;
21162;SDS011;10739;52.198;20.908;2023-03-22T00:13:27;61.58;;;38.15;;
21162;SDS011;10739;52.198;20.908;2023-03-22T00:15:54;61.67;;;36.45;;
21162;SDS011;10739;52.198;20.908;2023-03-22T00:18:22;69.15;;;39.28;;
21162;SDS011;10739;52.198;20.908;2023-03-22T00:20:49;66.85;;;39.33;;
21162;SDS011;10739;52.198;20.908;2023-03-22T00:23:18;69.10;;;39.83;;
21162;SDS011;10739;52.198;20.908;2023-03-22T00:25:46;65.25;;;39.17;;
21162;SDS011;10739;52.198;20.908;2023-03-22T00:28:13;65.28;;;39.53;;
21162;SDS011;10739;52.198;20.908;2023-03-22T00:30:41;60.75;;;38.42;;
21162;SDS011;10739;52.198;20.908;2023-03-22T00:33:15;64.65;;;37.63;;
21162;SDS011;10739;52.198;20.908;2023-03-22T00:35:46;59.78;;;37.10;;
21162;SDS011;10739;52.198;20.908;2023-03-22T00:38:24;66.18;;;37.90;;
21162;SDS011;10739;52.198;20.908;2023-03-22T00:41:12;61.97;;;37.45;;
21162;SDS011;10739;52.198;20.908;2023-03-22T00:43:41;71.35;;;39.85;;
21162;SDS011;10739;52.198;20.908;2023-03-22T00:46:09;64.32;;;38.70;;
21162;SDS011;10739;52.198;20.908;2023-03-22T00:48:37;61.80;;;39.03;;
21162;SDS011;10739;52.198;20.908;2023-03-22T00:51:03;59.67;;;36.67;;
21162;SDS011;10739;52.198;20.908;2023-03-22T00:53:30;64.63;;;37.95;;
21162;SDS011;10739;52.198;20.908;2023-03-22T00:56:00;63.08;;;38.00;;
21162;SDS011;10739;52.198;20.908;2023-03-22T00:58:29;65.03;;;38.83;;
21162;SDS011;10739;52.198;20.908;2023-03-22T01:00:55;63.15;;;37.90;;
21162;SDS011;10739;52.198;20.908;2023-03-22T01:03:22;74.05;;;39.67;;
21162;SDS011;10739;52.198;20.908;2023-03-22T01:05:50;68.00;;;39.92;;
21162;SDS011;10739;52.198;20.908;2023-03-22T01:08:20;70.13;;;41.33;;
21162;SDS011;10739;52.198;20.908;2023-03-22T01:10:48;73.05;;;43.00;;
21162;SDS011;10739;52.198;20.908;2023-03-22T01:13:15;69.70;;;40.88;;
21162;SDS011;10739;52.198;20.908;2023-03-22T01:15:41;70.55;;;39.92;;
21162;SDS011;10739;52.198;20.908;2023-03-22T01:18:08;69.57;;;40.53;;
21162;SDS011;10739;52.198;20.908;2023-03-22T01:20:34;73.28;;;42.30;;
21162;SDS011;10739;52.198;20.908;2023-03-22T01:23:01;74.55;;;40.88;;
21162;SDS011;10739;52.198;20.908;2023-03-22T01:25:28;71.65;;;41.60;;
21162;SDS011;10739;52.198;20.908;2023-03-22T01:27:55;73.90;;;41.70;;
21162;SDS011;10739;52.198;20.908;2023-03-22T01:30:21;72.13;;;40.92;;
21162;SDS011;10739;52.198;20.908;2023-03-22T01:32:47;69.70;;;41.03;;
21162;SDS011;10739;52.198;20.908;2023-03-22T01:35:14;75.15;;;40.75;;
21162;SDS011;10739;52.198;20.908;2023-03-22T01:37:40;71.93;;;41.70;;
21162;SDS011;10739;52.198;20.908;2023-03-22T01:40:06;68.95;;;38.88;;
21162;SDS011;10739;52.198;20.908;2023-03-22T01:42:36;72.30;;;42.80;;
21162;SDS011;10739;52.198;20.908;2023-03-22T01:47:58;65.45;;;39.05;;
21162;SDS011;10739;52.198;20.908;2023-03-22T01:50:30;73.68;;;41.85;;
21162;SDS011;10739;52.198;20.908;2023-03-22T01:52:56;74.20;;;43.10;;
21162;SDS011;10739;52.198;20.908;2023-03-22T01:55:25;75.38;;;42.05;;
21162;SDS011;10739;52.198;20.908;2023-03-22T01:57:52;79.57;;;45.97;;
21162;SDS011;10739;52.198;20.908;2023-03-22T02:00:19;80.03;;;45.33;;
21162;SDS011;10739;52.198;20.908;2023-03-22T02:02:47;79.38;;;44.50;;
21162;SDS011;10739;52.198;20.908;2023-03-22T02:05:16;80.88;;;45.92;;
21162;SDS011;10739;52.198;20.908;2023-03-22T02:07:46;81.03;;;46.83;;
21162;SDS011;10739;52.198;20.908;2023-03-22T02:10:19;84.97;;;47.78;;
21162;SDS011;10739;52.198;20.908;2023-03-22T02:25:11;86.05;;;47.95;;
21162;SDS011;10739;52.198;20.908;2023-03-22T02:34:31;99.30;;;49.15;;
21162;SDS011;10739;52.198;20.908;2023-03-22T02:37:20;92.07;;;48.88;;
21162;SDS011;10739;52.198;20.908;2023-03-22T02:40:31;82.93;;;48.97;;
21162;SDS011;10739;52.198;20.908;2023-03-22T02:46:43;93.63;;;49.72;;
21162;SDS011;10739;52.198;20.908;2023-03-22T02:49:37;92.22;;;50.53;;
21162;SDS011;10739;52.198;20.908;2023-03-22T02:52:20;92.90;;;49.83;;
21162;SDS011;10739;52.198;20.908;2023-03-22T02:55:38;86.88;;;50.65;;
21162;SDS011;10739;52.198;20.908;2023-03-22T02:58:17;91.20;;;48.80;;
21162;SDS011;10739;52.198;20.908;2023-03-22T03:00:56;92.22;;;50.78;;
21162;SDS011;10739;52.198;20.908;2023-03-22T03:03:29;91.30;;;48.45;;
21162;SDS011;10739;52.198;20.908;2023-03-22T03:05:59;85.28;;;48.17;;
21162;SDS011;10739;52.198;20.908;2023-03-22T03:08:41;88.88;;;47.60;;
21162;SDS011;10739;52.198;20.908;2023-03-22T03:11:09;87.10;;;49.47;;
21162;SDS011;10739;52.198;20.908;2023-03-22T03:13:35;79.07;;;46.72;;
21162;SDS011;10739;52.198;20.908;2023-03-22T03:16:01;80.78;;;46.25;;
21162;SDS011;10739;52.198;20.908;2023-03-22T03:24:04;79.22;;;44.63;;
21162;SDS011;10739;52.198;20.908;2023-03-22T03:29:48;75.70;;;44.50;;
21162;SDS011;10739;52.198;20.908;2023-03-22T03:35:21;76.90;;;41.50;;
21162;SDS011;10739;52.198;20.908;2023-03-22T03:38:01;73.70;;;43.13;;
21162;SDS011;10739;52.198;20.908;2023-03-22T03:40:36;82.93;;;43.97;;
21162;SDS011;10739;52.198;20.908;2023-03-22T03:43:12;74.10;;;43.30;;
21162;SDS011;10739;52.198;20.908;2023-03-22T03:45:40;70.55;;;42.17;;
21162;SDS011;10739;52.198;20.908;2023-03-22T03:48:08;77.82;;;43.13;;
21162;SDS011;10739;52.198;20.908;2023-03-22T03:50:43;74.63;;;43.53;;
21162;SDS011;10739;52.198;20.908;2023-03-22T03:53:10;74.28;;;45.53;;
21162;SDS011;10739;52.198;20.908;2023-03-22T03:55:36;75.05;;;45.78;;
21162;SDS011;10739;52.198;20.908;2023-03-22T03:58:02;73.85;;;43.92;;
21162;SDS011;10739;52.198;20.908;2023-03-22T04:00:29;85.10;;;47.47;;
21162;SDS011;10739;52.198;20.908;2023-03-22T04:02:55;84.65;;;46.67;;
21162;SDS011;10739;52.198;20.908;2023-03-22T04:05:21;79.97;;;46.00;;
21162;SDS011;10739;52.198;20.908;2023-03-22T04:07:47;81.43;;;46.28;;
21162;SDS011;10739;52.198;20.908;2023-03-22T04:10:14;84.60;;;46.30;;
21162;SDS011;10739;52.198;20.908;2023-03-22T04:12:40;80.70;;;46.72;;
21162;SDS011;10739;52.198;20.908;2023-03-22T04:15:07;83.20;;;47.05;;
21162;SDS011;10739;52.198;20.908;2023-03-22T04:17:33;87.93;;;48.85;;
21162;SDS011;10739;52.198;20.908;2023-03-22T04:20:00;84.90;;;48.58;;
21162;SDS011;10739;52.198;20.908;2023-03-22T04:22:27;82.45;;;49.20;;
21162;SDS011;10739;52.198;20.908;2023-03-22T04:24:55;89.18;;;49.67;;
21162;SDS011;10739;52.198;20.908;2023-03-22T04:27:24;88.60;;;49.63;;
21162;SDS011;10739;52.198;20.908;2023-03-22T04:29:50;88.75;;;49.35;;
21162;SDS011;10739;52.198;20.908;2023-03-22T04:32:19;91.43;;;50.53;;
21162;SDS011;10739;52.198;20.908;2023-03-22T04:34:49;89.80;;;50.65;;
21162;SDS011;10739;52.198;20.908;2023-03-22T04:37:18;94.22;;;50.92;;
21162;SDS011;10739;52.198;20.908;2023-03-22T04:39:47;85.03;;;49.53;;
21162;SDS011;10739;52.198;20.908;2023-03-22T04:42:13;92.63;;;50.38;;
21162;SDS011;10739;52.198;20.908;2023-03-22T04:44:39;83.40;;;47.38;;
21162;SDS011;10739;52.198;20.908;2023-03-22T04:47:05;84.47;;;49.45;;
21162;SDS011;10739;52.198;20.908;2023-03-22T04:49:32;89.72;;;50.47;;
21162;SDS011;10739;52.198;20.908;2023-03-22T04:51:58;91.35;;;48.58;;
21162;SDS011;10739;52.198;20.908;2023-03-22T04:54:27;98.40;;;52.05;;
21162;SDS011;10739;52.198;20.908;2023-03-22T04:56:54;90.00;;;51.30;;
21162;SDS011;10739;52.198;20.908;2023-03-22T04:59:20;93.20;;;51.60;;
21162;SDS011;10739;52.198;20.908;2023-03-22T05:01:46;91.03;;;51.53;;
21162;SDS011;10739;52.198;20.908;2023-03-22T05:04:18;93.10;;;51.58;;
21162;SDS011;10739;52.198;20.908;2023-03-22T05:06:45;88.22;;;51.05;;
21162;SDS011;10739;52.198;20.908;2023-03-22T05:09:12;92.82;;;50.72;;
21162;SDS011;10739;52.198;20.908;2023-03-22T05:11:39;90.70;;;50.22;;
21162;SDS011;10739;52.198;20.908;2023-03-22T05:14:05;85.03;;;48.65;;
21162;SDS011;10739;52.198;20.908;2023-03-22T05:16:33;82.32;;;48.45;;
21162;SDS011;10739;52.198;20.908;2023-03-22T05:19:00;88.13;;;50.40;;
21162;SDS011;10739;52.198;20.908;2023-03-22T05:21:28;86.10;;;48.83;;
21162;SDS011;10739;52.198;20.908;2023-03-22T05:24:01;90.45;;;48.53;;
21162;SDS011;10739;52.198;20.908;2023-03-22T05:26:28;84.65;;;47.20;;
21162;SDS011;10739;52.198;20.908;2023-03-22T05:28:57;80.18;;;47.80;;
21162;SDS011;10739;52.198;20.908;2023-03-22T05:31:23;79.22;;;46.10;;
21162;SDS011;10739;52.198;20.908;2023-03-22T05:33:52;81.22;;;45.83;;
21162;SDS011;10739;52.198;20.908;2023-03-22T05:36:19;81.95;;;45.55;;
21162;SDS011;10739;52.198;20.908;2023-03-22T05:39:05;86.00;;;45.80;;
21162;SDS011;10739;52.198;20.908;2023-03-22T05:41:32;77.63;;;44.45;;
21162;SDS011;10739;52.198;20.908;2023-03-22T05:43:59;82.00;;;46.25;;
21162;SDS011;10739;52.198;20.908;2023-03-22T05:46:25;80.47;;;45.80;;
21162;SDS011;10739;52.198;20.908;2023-03-22T05:48:51;80.75;;;44.72;;
21162;SDS011;10739;52.198;20.908;2023-03-22T05:51:18;78.43;;;45.22;;
21162;SDS011;10739;52.198;20.908;2023-03-22T05:53:45;72.90;;;42.10;;
21162;SDS011;10739;52.198;20.908;2023-03-22T05:56:12;81.00;;;42.80;;
21162;SDS011;10739;52.198;20.908;2023-03-22T05:58:40;74.85;;;39.90;;
21162;SDS011;10739;52.198;20.908;2023-03-22T06:01:07;70.07;;;40.78;;
21162;SDS011;10739;52.198;20.908;2023-03-22T06:03:36;64.68;;;37.65;;
21162;SDS011;10739;52.198;20.908;2023-03-22T06:06:04;70.28;;;39.67;;
21162;SDS011;10739;52.198;20.908;2023-03-22T06:08:37;64.72;;;36.08;;
21162;SDS011;10739;52.198;20.908;2023-03-22T06:11:04;55.00;;;33.88;;
21162;SDS011;10739;52.198;20.908;2023-03-22T06:13:31;56.08;;;34.13;;
21162;SDS011;10739;52.198;20.908;2023-03-22T06:15:59;52.60;;;32.33;;
21162;SDS011;10739;52.198;20.908;2023-03-22T06:18:28;54.33;;;32.53;;
21162;SDS011;10739;52.198;20.908;2023-03-22T06:20:55;56.15;;;32.88;;
21162;SDS011;10739;52.198;20.908;2023-03-22T06:23:22;51.47;;;30.95;;
21162;SDS011;10739;52.198;20.908;2023-03-22T06:25:49;46.30;;;30.88;;
21162;SDS011;10739;52.198;20.908;2023-03-22T06:28:15;41.92;;;29.05;;
21162;SDS011;10739;52.198;20.908;2023-03-22T06:30:41;51.70;;;26.42;;
21162;SDS011;10739;52.198;20.908;2023-03-22T06:33:07;37.63;;;24.23;;
21162;SDS011;10739;52.198;20.908;2023-03-22T06:35:34;39.97;;;25.25;;
21162;SDS011;10739;52.198;20.908;2023-03-22T06:38:01;37.00;;;23.20;;
21162;SDS011;10739;52.198;20.908;2023-03-22T06:40:27;34.85;;;23.20;;
21162;SDS011;10739;52.198;20.908;2023-03-22T06:42:53;35.33;;;22.17;;
21162;SDS011;10739;52.198;20.908;2023-03-22T06:45:20;35.45;;;23.05;;
21162;SDS011;10739;52.198;20.908;2023-03-22T06:47:46;35.97;;;23.25;;
21162;SDS011;10739;52.198;20.908;2023-03-22T06:50:14;32.75;;;21.30;;
21162;SDS011;10739;52.198;20.908;2023-03-22T06:52:41;35.50;;;21.95;;
21162;SDS011;10739;52.198;20.908;2023-03-22T06:55:08;33.78;;;22.02;;
21162;SDS011;10739;52.198;20.908;2023-03-22T06:57:34;29.55;;;20.45;;
21162;SDS011;10739;52.198;20.908;2023-03-22T07:00:00;32.85;;;19.35;;
21162;SDS011;10739;52.198;20.908;2023-03-22T07:02:29;35.28;;;17.88;;
21162;SDS011;10739;52.198;20.908;2023-03-22T07:04:55;31.55;;;18.70;;
21162;SDS011;10739;52.198;20.908;2023-03-22T07:07:21;26.88;;;18.02;;
21162;SDS011;10739;52.198;20.908;2023-03-22T07:09:48;28.98;;;18.20;;
21162;SDS011;10739;52.198;20.908;2023-03-22T07:12:14;26.48;;;18.50;;
21162;SDS011;10739;52.198;20.908;2023-03-22T07:14:41;33.28;;;18.08;;
21162;SDS011;10739;52.198;20.908;2023-03-22T07:17:07;28.85;;;18.25;;
21162;SDS011;10739;52.198;20.908;2023-03-22T07:19:33;27.48;;;17.90;;
21162;SDS011;10739;52.198;20.908;2023-03-22T07:22:00;28.15;;;18.35;;
21162;SDS011;10739;52.198;20.908;2023-03-22T07:24:26;24.80;;;16.92;;
21162;SDS011;10739;52.198;20.908;2023-03-22T07:26:53;26.38;;;16.77;;
21162;SDS011;10739;52.198;20.908;2023-03-22T07:29:19;25.45;;;16.42;;
21162;SDS011;10739;52.198;20.908;2023-03-22T07:31:45;28.42;;;16.23;;
21162;SDS011;10739;52.198;20.908;2023-03-22T07:34:12;31.45;;;17.73;;
21162;SDS011;10739;52.198;20.908;2023-03-22T07:36:38;23.50;;;16.20;;
21162;SDS011;10739;52.198;20.908;2023-03-22T07:39:04;21.23;;;15.60;;
21162;SDS011;10739;52.198;20.908;2023-03-22T07:41:31;24.58;;;15.68;;
21162;SDS011;10739;52.198;20.908;2023-03-22T07:43:57;26.48;;;16.90;;
21162;SDS011;10739;52.198;20.908;2023-03-22T07:46:23;26.08;;;16.88;;
21162;SDS011;10739;52.198;20.908;2023-03-22T07:48:50;22.88;;;14.95;;
21162;SDS011;10739;52.198;20.908;2023-03-22T07:51:16;29.73;;;15.95;;
21162;SDS011;10739;52.198;20.908;2023-03-22T07:53:43;21.58;;;15.13;;
21162;SDS011;10739;52.198;20.908;2023-03-22T07:56:09;20.65;;;14.95;;
21162;SDS011;10739;52.198;20.908;2023-03-22T07:58:36;23.75;;;14.48;;
21162;SDS011;10739;52.198;20.908;2023-03-22T08:01:03;21.10;;;15.00;;
21162;SDS011;10739;52.198;20.908;2023-03-22T08:03:34;21.27;;;15.55;;
21162;SDS011;10739;52.198;20.908;2023-03-22T08:06:01;23.15;;;15.80;;
21162;SDS011;10739;52.198;20.908;2023-03-22T08:08:32;22.98;;;15.55;;
21162;SDS011;10739;52.198;20.908;2023-03-22T08:11:05;25.88;;;15.27;;
21162;SDS011;10739;52.198;20.908;2023-03-22T08:13:32;21.85;;;13.63;;
21162;SDS011;10739;52.198;20.908;2023-03-22T08:15:59;23.90;;;15.77;;
21162;SDS011;10739;52.198;20.908;2023-03-22T08:18:25;23.95;;;15.70;;
21162;SDS011;10739;52.198;20.908;2023-03-22T08:20:55;25.05;;;16.25;;
21162;SDS011;10739;52.198;20.908;2023-03-22T08:23:24;22.60;;;16.00;;
21162;SDS011;10739;52.198;20.908;2023-03-22T08:25:52;22.33;;;15.80;;
21162;SDS011;10739;52.198;20.908;2023-03-22T08:28:18;19.90;;;15.32;;
21162;SDS011;10739;52.198;20.908;2023-03-22T08:30:45;23.70;;;16.17;;
21162;SDS011;10739;52.198;20.908;2023-03-22T08:33:13;25.92;;;16.90;;
21162;SDS011;10739;52.198;20.908;2023-03-22T08:35:40;22.77;;;15.88;;
21162;SDS011;10739;52.198;20.908;2023-03-22T08:38:09;29.88;;;16.48;;
21162;SDS011;10739;52.198;20.908;2023-03-22T08:40:35;25.33;;;16.40;;
21162;SDS011;10739;52.198;20.908;2023-03-22T08:43:02;28.70;;;16.02;;
21162;SDS011;10739;52.198;20.908;2023-03-22T08:45:29;21.45;;;15.63;;
21162;SDS011;10739;52.198;20.908;2023-03-22T08:47:55;24.80;;;16.55;;
21162;SDS011;10739;52.198;20.908;2023-03-22T08:50:22;24.88;;;16.73;;
21162;SDS011;10739;52.198;20.908;2023-03-22T08:52:48;23.63;;;15.30;;
21162;SDS011;10739;52.198;20.908;2023-03-22T08:55:15;24.63;;;16.00;;
21162;SDS011;10739;52.198;20.908;2023-03-22T08:57:42;23.92;;;15.30;;
21162;SDS011;10739;52.198;20.908;2023-03-22T09:02:42;24.25;;;14.93;;
21162;SDS011;10739;52.198;20.908;2023-03-22T09:05:09;18.13;;;14.43;;
21162;SDS011;10739;52.198;20.908;2023-03-22T09:07:38;23.33;;;15.30;;
21162;SDS011;10739;52.198;20.908;2023-03-22T09:10:04;20.98;;;14.68;;
21162;SDS011;10739;52.198;20.908;2023-03-22T09:12:32;19.70;;;15.23;;
21162;SDS011;10739;52.198;20.908;2023-03-22T09:14:58;21.52;;;14.43;;
21162;SDS011;10739;52.198;20.908;2023-03-22T09:17:25;18.15;;;14.27;;
21162;SDS011;10739;52.198;20.908;2023-03-22T09:19:51;20.98;;;14.77;;
21162;SDS011;10739;52.198;20.908;2023-03-22T09:22:18;21.77;;;14.43;;
21162;SDS011;10739;52.198;20.908;2023-03-22T09:24:44;23.23;;;14.48;;
21162;SDS011;10739;52.198;20.908;2023-03-22T09:27:10;19.45;;;14.18;;
21162;SDS011;10739;52.198;20.908;2023-03-22T09:29:37;21.02;;;13.98;;
21162;SDS011;10739;52.198;20.908;2023-03-22T09:32:03;19.60;;;13.15;;
21162;SDS011;10739;52.198;20.908;2023-03-22T09:34:29;19.80;;;14.32;;
21162;SDS011;10739;52.198;20.908;2023-03-22T09:36:56;20.70;;;14.55;;
21162;SDS011;10739;52.198;20.908;2023-03-22T09:39:22;22.23;;;14.70;;
21162;SDS011;10739;52.198;20.908;2023-03-22T09:41:53;19.13;;;14.10;;
21162;SDS011;10739;52.198;20.908;2023-03-22T09:44:33;19.98;;;14.20;;
21162;SDS011;10739;52.198;20.908;2023-03-22T09:47:09;19.85;;;14.63;;
21162;SDS011;10739;52.198;20.908;2023-03-22T09:49:43;19.58;;;14.40;;
21162;SDS011;10739;52.198;20.908;2023-03-22T09:52:15;19.25;;;13.70;;
21162;SDS011;10739;52.198;20.908;2023-03-22T09:54:43;19.63;;;14.57;;
21162;SDS011;10739;52.198;20.908;2023-03-22T09:57:26;21.67;;;15.63;;
21162;SDS011;10739;52.198;20.908;2023-03-22T10:00:07;22.27;;;14.30;;
21162;SDS011;10739;52.198;20.908;2023-03-22T10:11:21;21.25;;;13.93;;
21162;SDS011;10739;52.198;20.908;2023-03-22T10:14:27;19.83;;;14.38;;
21162;SDS011;10739;52.198;20.908;2023-03-22T10:17:08;20.90;;;14.23;;
21162;SDS011;10739;52.198;20.908;2023-03-22T10:19:58;24.52;;;14.85;;
21162;SDS011;10739;52.198;20.908;2023-03-22T10:22:42;20.75;;;15.13;;
21162;SDS011;10739;52.198;20.908;2023-03-22T10:25:14;18.58;;;13.55;;
21162;SDS011;10739;52.198;20.908;2023-03-22T10:27:46;23.27;;;13.88;;
21162;SDS011;10739;52.198;20.908;2023-03-22T10:30:20;22.45;;;15.00;;
21162;SDS011;10739;52.198;20.908;2023-03-22T10:32:59;18.95;;;14.35;;
21162;SDS011;10739;52.198;20.908;2023-03-22T10:35:29;18.42;;;13.95;;
21162;SDS011;10739;52.198;20.908;2023-03-22T10:37:57;19.45;;;14.00;;
21162;SDS011;10739;52.198;20.908;2023-03-22T10:40:33;21.52;;;15.38;;
21162;SDS011;10739;52.198;20.908;2023-03-22T10:45:32;18.02;;;13.75;;
21162;SDS011;10739;52.198;20.908;2023-03-22T10:48:06;20.20;;;14.77;;
21162;SDS011;10739;52.198;20.908;2023-03-22T10:54:11;18.33;;;13.60;;
21162;SDS011;10739;52.198;20.908;2023-03-22T10:56:41;20.35;;;12.60;;
21162;SDS011;10739;52.198;20.908;2023-03-22T10:59:07;22.08;;;13.23;;
21162;SDS011;10739;52.198;20.908;2023-03-22T11:02:18;18.42;;;12.63;;
21162;SDS011;10739;52.198;20.908;2023-03-22T11:04:49;18.30;;;13.05;;
21162;SDS011;10739;52.198;20.908;2023-03-22T11:07:29;18.42;;;12.05;;
21162;SDS011;10739;52.198;20.908;2023-03-22T11:15:42;16.98;;;12.13;;
21162;SDS011;10739;52.198;20.908;2023-03-22T11:18:18;17.75;;;13.05;;
21162;SDS011;10739;52.198;20.908;2023-03-22T11:21:09;19.35;;;12.88;;
21162;SDS011;10739;52.198;20.908;2023-03-22T11:23:35;19.05;;;13.02;;
21162;SDS011;10739;52.198;20.908;2023-03-22T11:26:09;18.55;;;13.60;;
21162;SDS011;10739;52.198;20.908;2023-03-22T11:28:48;18.95;;;13.07;;
21162;SDS011;10739;52.198;20.908;2023-03-22T11:31:16;17.00;;;12.48;;
21162;SDS011;10739;52.198;20.908;2023-03-22T11:36:24;22.63;;;13.23;;
21162;SDS011;10739;52.198;20.908;2023-03-22T11:38:58;18.05;;;12.57;;
21162;SDS011;10739;52.198;20.908;2023-03-22T11:41:28;19.15;;;13.23;;
21162;SDS011;10739;52.198;20.908;2023-03-22T11:44:00;19.42;;;12.45;;
21162;SDS011;10739;52.198;20.908;2023-03-22T11:46:32;18.73;;;13.05;;
21162;SDS011;10739;52.198;20.908;2023-03-22T11:49:02;18.95;;;13.05;;
21162;SDS011;10739;52.198;20.908;2023-03-22T11:51:38;18.55;;;12.32;;
21162;SDS011;10739;52.198;20.908;2023-03-22T11:54:17;14.63;;;11.27;;
21162;SDS011;10739;52.198;20.908;2023-03-22T11:56:58;18.92;;;12.05;;
21162;SDS011;10739;52.198;20.908;2023-03-22T11:59:36;17.17;;;12.15;;
21162;SDS011;10739;52.198;20.908;2023-03-22T12:02:54;16.60;;;12.57;;
21162;SDS011;10739;52.198;20.908;2023-03-22T12:05:30;20.38;;;12.15;;
21162;SDS011;10739;52.198;20.908;2023-03-22T12:08:08;17.02;;;12.57;;
21162;SDS011;10739;52.198;20.908;2023-03-22T12:10:43;15.65;;;11.40;;
21162;SDS011;10739;52.198;20.908;2023-03-22T12:16:04;17.25;;;11.23;;
21162;SDS011;10739;52.198;20.908;2023-03-22T12:18:43;14.00;;;10.68;;
21162;SDS011;10739;52.198;20.908;2023-03-22T12:21:22;14.45;;;10.85;;
21162;SDS011;10739;52.198;20.908;2023-03-22T12:23:48;15.38;;;10.45;;
21162;SDS011;10739;52.198;20.908;2023-03-22T12:26:16;17.33;;;11.98;;
21162;SDS011;10739;52.198;20.908;2023-03-22T12:28:51;15.35;;;10.63;;
21162;SDS011;10739;52.198;20.908;2023-03-22T12:31:41;17.08;;;10.65;;
21162;SDS011;10739;52.198;20.908;2023-03-22T12:34:20;20.02;;;11.10;;
21162;SDS011;10739;52.198;20.908;2023-03-22T12:37:04;16.83;;;9.45;;
21162;SDS011;10739;52.198;20.908;2023-03-22T12:39:38;14.70;;;9.45;;
21162;SDS011;10739;52.198;20.908;2023-03-22T12:45:28;18.58;;;9.27;;
21162;SDS011;10739;52.198;20.908;2023-03-22T12:48:11;12.48;;;9.48;;
21162;SDS011;10739;52.198;20.908;2023-03-22T12:51:01;15.82;;;10.15;;
21162;SDS011;10739;52.198;20.908;2023-03-22T12:53:33;12.73;;;9.88;;
21162;SDS011;10739;52.198;20.908;2023-03-22T12:56:16;17.63;;;10.35;;
21162;SDS011;10739;52.198;20.908;2023-03-22T13:04:58;14.93;;;10.45;;
21162;SDS011;10739;52.198;20.908;2023-03-22T13:13:31;14.00;;;10.20;;
21162;SDS011;10739;52.198;20.908;2023-03-22T13:16:13;16.42;;;10.90;;
21162;SDS011;10739;52.198;20.908;2023-03-22T13:21:22;15.25;;;10.85;;
21162;SDS011;10739;52.198;20.908;2023-03-22T13:26:32;15.98;;;11.43;;
21162;SDS011;10739;52.198;20.908;2023-03-22T13:32:04;16.85;;;11.35;;
21162;SDS011;10739;52.198;20.908;2023-03-22T13:34:58;14.48;;;10.32;;
21162;SDS011;10739;52.198;20.908;2023-03-22T13:37:32;15.18;;;10.05;;
21162;SDS011;10739;52.198;20.908;2023-03-22T13:40:14;19.00;;;10.80;;
21162;SDS011;10739;52.198;20.908;2023-03-22T13:43:10;14.63;;;9.50;;
21162;SDS011;10739;52.198;20.908;2023-03-22T13:51:20;14.57;;;10.35;;
21162;SDS011;10739;52.198;20.908;2023-03-22T13:59:32;14.70;;;10.60;;
21162;SDS011;10739;52.198;20.908;2023-03-22T14:02:29;13.02;;;9.70;;
21162;SDS011;10739;52.198;20.908;2023-03-22T14:05:02;16.55;;;10.20;;
21162;SDS011;10739;52.198;20.908;2023-03-22T14:07:41;13.20;;;9.75;;
21162;SDS011;10739;52.198;20.908;2023-03-22T14:10:36;14.45;;;10.90;;
21162;SDS011;10739;52.198;20.908;2023-03-22T14:13:16;14.77;;;10.68;;
21162;SDS011;10739;52.198;20.908;2023-03-22T14:16:07;14.77;;;11.05;;
21162;SDS011;10739;52.198;20.908;2023-03-22T14:18:45;14.77;;;10.20;;
21162;SDS011;10739;52.198;20.908;2023-03-22T14:21:18;13.75;;;10.48;;
21162;SDS011;10739;52.198;20.908;2023-03-22T14:23:54;16.10;;;11.02;;
21162;SDS011;10739;52.198;20.908;2023-03-22T14:26:25;15.55;;;11.27;;
21162;SDS011;10739;52.198;20.908;2023-03-22T14:29:20;16.77;;;10.55;;
21162;SDS011;10739;52.198;20.908;2023-03-22T14:32:03;16.55;;;11.23;;
21162;SDS011;10739;52.198;20.908;2023-03-22T14:34:31;18.65;;;11.40;;
21162;SDS011;10739;52.198;20.908;2023-03-22T14:37:02;16.38;;;10.30;;
21162;SDS011;10739;52.198;20.908;2023-03-22T14:39:37;16.25;;;10.77;;
21162;SDS011;10739;52.198;20.908;2023-03-22T14:44:59;15.05;;;10.48;;
21162;SDS011;10739;52.198;20.908;2023-03-22T14:47:38;16.48;;;11.18;;
21162;SDS011;10739;52.198;20.908;2023-03-22T14:50:09;17.92;;;10.93;;
21162;SDS011;10739;52.198;20.908;2023-03-22T14:52:48;16.20;;;11.27;;
21162;SDS011;10739;52.198;20.908;2023-03-22T14:55:17;13.35;;;10.90;;
21162;SDS011;10739;52.198;20.908;2023-03-22T14:57:50;17.60;;;11.38;;
21162;SDS011;10739;52.198;20.908;2023-03-22T15:00:22;16.88;;;11.95;;
21162;SDS011;10739;52.198;20.908;2023-03-22T15:02:57;19.98;;;11.80;;
21162;SDS011;10739;52.198;20.908;2023-03-22T15:05:32;14.68;;;10.85;;
21162;SDS011;10739;52.198;20.908;2023-03-22T15:08:05;14.77;;;10.85;;
21162;SDS011;10739;52.198;20.908;2023-03-22T15:10:39;17.27;;;11.45;;
21162;SDS011;10739;52.198;20.908;2023-03-22T15:13:05;20.42;;;10.90;;
21162;SDS011;10739;52.198;20.908;2023-03-22T15:15:36;15.77;;;10.85;;
21162;SDS011;10739;52.198;20.908;2023-03-22T15:18:06;17.10;;;10.90;;
21162;SDS011;10739;52.198;20.908;2023-03-22T15:20:41;15.48;;;11.25;;
21162;SDS011;10739;52.198;20.908;2023-03-22T15:25:46;15.55;;;10.80;;
21162;SDS011;10739;52.198;20.908;2023-03-22T15:28:28;16.10;;;10.85;;
21162;SDS011;10739;52.198;20.908;2023-03-22T15:31:01;16.33;;;11.18;;
21162;SDS011;10739;52.198;20.908;2023-03-22T15:33:32;27.58;;;11.02;;
21162;SDS011;10739;52.198;20.908;2023-03-22T15:36:03;19.23;;;11.07;;
21162;SDS011;10739;52.198;20.908;2023-03-22T15:38:37;15.95;;;11.00;;
21162;SDS011;10739;52.198;20.908;2023-03-22T15:41:19;19.20;;;11.80;;
21162;SDS011;10739;52.198;20.908;2023-03-22T15:46:56;16.05;;;11.75;;
21162;SDS011;10739;52.198;20.908;2023-03-22T15:49:40;16.27;;;11.75;;
21162;SDS011;10739;52.198;20.908;2023-03-22T15:54:58;19.80;;;12.35;;
21162;SDS011;10739;52.198;20.908;2023-03-22T15:57:52;21.33;;;12.85;;
21162;SDS011;10739;52.198;20.908;2023-03-22T16:00:30;25.10;;;12.65;;
21162;SDS011;10739;52.198;20.908;2023-03-22T16:05:33;20.48;;;13.20;;
21162;SDS011;10739;52.198;20.908;2023-03-22T16:08:19;17.20;;;12.50;;
21162;SDS011;10739;52.198;20.908;2023-03-22T16:10:46;16.25;;;12.25;;
21162;SDS011;10739;52.198;20.908;2023-03-22T16:13:16;25.27;;;14.02;;
21162;SDS011;10739;52.198;20.908;2023-03-22T16:15:49;23.70;;;13.30;;
21162;SDS011;10739;52.198;20.908;2023-03-22T16:18:17;23.60;;;13.45;;
21162;SDS011;10739;52.198;20.908;2023-03-22T16:20:49;26.20;;;13.63;;
21162;SDS011;10739;52.198;20.908;2023-03-22T16:23:18;23.20;;;14.07;;
21162;SDS011;10739;52.198;20.908;2023-03-22T16:25:47;21.80;;;13.98;;
21162;SDS011;10739;52.198;20.908;2023-03-22T16:28:14;20.95;;;13.68;;